»·PEaware :: DAL1180 KONT-KLAS

DAL1180 :: KONT-KLAS

FLIGHT INFORMATION

Flight Status: Arrived
Operator:
Delta Air Lines
More flights by this operator :: More flights under this callsign
Pilot: Chris C. (10181)
Aircraft: MCDONNELL-DOUGLAS MD-88
(MD88)
More flights by this aircraft type
Origin: KONT Ontario Intl
United States
Destination: KLAS McCarran Intl
United States
More flights between these airports :: More routes between these airports
Route: +SNSHN4 MISEN KEPEC6
File this flight plan on PilotEdge
Remarks: Happy Sunday!
Altitude:
(Current/Filed)
27,000ft
Speed:
(Current/Filed)
440kts
Departed: 22-Mar-20 09:57 PM
Arrived: 22-Mar-20 10:37 PM
Distance/Time
Traveled:
171nm/0:40
Distance/Time
To Go:
Arrived

Flight Plot

Page will automatically refresh every two minutes.

Flight plan parsing failed; only flown route is shown


Map Options




Map Legend


Flown Route
Filed Route
Departure Airport
Arrival Airport
Navaid (VOR, NDB)
Fix

Horizontal Profiles

Position Reports

Time Latitude Longitude Heading Altitude Ground
Speed
22-Mar-20 21:34 34.059760 -117.586263 0 941ft 0kts
22-Mar-20 21:35 34.059760 -117.586263 0 941ft 0kts
22-Mar-20 21:36 34.059760 -117.586263 0 940ft 0kts
22-Mar-20 21:37 34.059759 -117.586263 0 940ft 0kts
22-Mar-20 21:38 34.059760 -117.586263 0 940ft 0kts
22-Mar-20 21:39 34.059760 -117.586263 0 940ft 0kts
22-Mar-20 21:40 34.059759 -117.586263 0 940ft 0kts
22-Mar-20 21:41 34.059759 -117.586263 0 940ft 0kts
22-Mar-20 21:42 34.059759 -117.586263 0 940ft 0kts
22-Mar-20 21:43 34.059759 -117.586263 0 940ft 0kts
22-Mar-20 21:44 34.059759 -117.586263 0 940ft 0kts
22-Mar-20 21:45 34.059759 -117.586263 0 940ft 0kts
22-Mar-20 21:46 34.059759 -117.586263 0 940ft 0kts
22-Mar-20 21:47 34.059759 -117.586263 0 940ft 0kts
22-Mar-20 21:48 34.059759 -117.586263 0 940ft 0kts
22-Mar-20 21:49 34.059267 -117.586337 30 939ft 2kts
22-Mar-20 21:50 34.059015 -117.586850 92 938ft 1kts
22-Mar-20 21:51 34.059016 -117.586886 90 938ft 0kts
22-Mar-20 21:52 34.059016 -117.586886 90 938ft 0kts
22-Mar-20 21:53 34.059007 -117.586155 90 939ft 5kts
22-Mar-20 21:54 34.058449 -117.582531 174 938ft 11kts
22-Mar-20 21:55 34.058017 -117.582507 177 937ft 0kts
22-Mar-20 21:56 34.056891 -117.586451 268 934ft 70kts
22-Mar-20 21:57 34.056312 -117.636855 268 2368ft 180kts
22-Mar-20 21:58 34.056326 -117.700310 283 4789ft 203kts
22-Mar-20 21:59 34.073221 -117.777289 291 7183ft 261kts
22-Mar-20 22:00 34.124347 -117.848849 316 9595ft 316kts
22-Mar-20 22:01 34.195851 -117.920656 314 12640ft 339kts
22-Mar-20 22:02 34.277727 -117.975992 359 14008ft 366kts
22-Mar-20 22:03 34.366917 -117.910919 54 15682ft 397kts
22-Mar-20 22:04 34.382635 -117.778563 92 17842ft 408kts
22-Mar-20 22:05 34.390813 -117.636766 89 19670ft 432kts
22-Mar-20 22:06 34.447543 -117.505497 50 21247ft 463kts
22-Mar-20 22:07 34.526547 -117.377317 52 22748ft 482kts
22-Mar-20 22:08 34.607635 -117.242988 53 24106ft 499kts
22-Mar-20 22:09 34.691434 -117.104293 53 25374ft 514kts
22-Mar-20 22:10 34.777856 -116.961598 52 26515ft 529kts
22-Mar-20 22:11 34.868120 -116.812818 52 27060ft 553kts
22-Mar-20 22:12 34.960848 -116.655469 55 27225ft 578kts
22-Mar-20 22:13 35.053434 -116.490627 54 27176ft 594kts
22-Mar-20 22:14 35.154753 -116.337377 42 27088ft 564kts
22-Mar-20 22:15 35.264955 -116.198877 43 26078ft 562kts
22-Mar-20 22:16 35.373286 -116.061724 44 24128ft 548kts
22-Mar-20 22:17 35.478521 -115.928610 43 24092ft 540kts
22-Mar-20 22:18 35.584112 -115.795284 43 24096ft 543kts
22-Mar-20 22:19 35.689321 -115.662461 43 24099ft 543kts
22-Mar-20 22:20 35.810621 -115.564111 358 24107ft 508kts
22-Mar-20 22:21 35.948748 -115.555347 14 22354ft 510kts
22-Mar-20 22:22 36.036971 -115.428700 82 20424ft 482kts
22-Mar-20 22:23 36.027833 -115.283152 105 18298ft 374kts
22-Mar-20 22:24 36.016310 -115.164068 99 16172ft 320kts
22-Mar-20 22:25 36.008994 -115.060349 98 14144ft 292kts
22-Mar-20 22:26 36.003336 -114.965696 97 12498ft 263kts
22-Mar-20 22:27 35.998077 -114.877762 97 10480ft 251kts
22-Mar-20 22:28 35.992789 -114.793202 96 8486ft 243kts
22-Mar-20 22:29 36.032942 -114.754368 322 6957ft 237kts
22-Mar-20 22:30 36.061202 -114.824628 291 5051ft 223kts
22-Mar-20 22:31 36.073527 -114.897483 268 5004ft 221kts
22-Mar-20 22:32 36.073587 -114.968609 269 4570ft 190kts
22-Mar-20 22:33 36.073617 -115.030717 268 3521ft 172kts
22-Mar-20 22:34 36.073636 -115.084992 268 2526ft 150kts
22-Mar-20 22:35 36.073658 -115.135849 269 2072ft 135kts
22-Mar-20 22:36 36.074639 -115.145751 299 2101ft 6kts
22-Mar-20 22:37 36.076459 -115.146572 359 2102ft 20kts
22-Mar-20 22:38 36.078450 -115.147023 51 2102ft 6kts
22-Mar-20 22:39 36.078388 -115.140229 63 2079ft 25kts

Navigation Log

Ident Type
Flight plan parsing failed, navigation log unavailable